Time;durP1;ratioP1;P1;durP2;ratioP2;P2;SDS_P1;SDS_P2;PMS_P1;PMS_P2;Temp;Humidity;BMP_temperature;BMP_pressure;BME280_temperature;BME280_humidity;BME280_pressure;Samples;Min_cycle;Max_cycle;Signal;HPM_P1;HPM_P2
2024/05/08 00:00:42;;;;;;;42.22;24.40;;;;;;;;;;5495838;27;20021;-84
2024/05/08 00:03:12;;;;;;;38.15;24.20;;;;;;;;;;5467743;27;19998;-84
2024/05/08 00:05:43;;;;;;;41.05;25.10;;;;;;;;;;5495331;27;20017;-85
2024/05/08 00:08:18;;;;;;;40.22;24.02;;;;;;;;;;5464689;27;20009;-84
2024/05/08 00:10:48;;;;;;;40.95;24.40;;;;;;;;;;5495033;27;20021;-84
2024/05/08 00:13:18;;;;;;;40.92;24.20;;;;;;;;;;5495553;27;19997;-84
2024/05/08 00:15:49;;;;;;;42.05;24.92;;;;;;;;;;5495623;26;19991;-84
2024/05/08 00:18:19;;;;;;;37.70;23.77;;;;;;;;;;5495133;26;19997;-83
2024/05/08 00:20:49;;;;;;;36.47;22.55;;;;;;;;;;5494899;27;20347;-84
2024/05/08 00:23:19;;;;;;;41.60;24.48;;;;;;;;;;5493534;27;20013;-85
2024/05/08 00:25:50;;;;;;;37.88;22.85;;;;;;;;;;5495566;26;19994;-84
2024/05/08 00:28:20;;;;;;;40.10;23.42;;;;;;;;;;5496576;26;20332;-85
2024/05/08 00:30:50;;;;;;;36.83;22.73;;;;;;;;;;5496569;26;20347;-81
2024/05/08 00:33:21;;;;;;;37.45;22.83;;;;;;;;;;5496246;26;20001;-83
2024/05/08 00:35:51;;;;;;;34.90;22.17;;;;;;;;;;5496729;26;20467;-83
2024/05/08 00:38:21;;;;;;;32.53;21.35;;;;;;;;;;5494785;26;20407;-84
2024/05/08 00:40:56;;;;;;;35.13;18.45;;;;;;;;;;5495703;27;19993;-84
2024/05/08 00:43:26;;;;;;;35.20;22.40;;;;;;;;;;5493635;27;20005;-84
2024/05/08 00:45:58;;;;;;;31.98;20.23;;;;;;;;;;5496297;26;20008;-84
2024/05/08 00:48:29;;;;;;;33.13;20.90;;;;;;;;;;5497444;26;20308;-84
2024/05/08 00:50:59;;;;;;;34.60;21.48;;;;;;;;;;5496849;27;20008;-83
2024/05/08 00:53:30;;;;;;;36.03;21.25;;;;;;;;;;5496094;27;20011;-84
2024/05/08 00:56:00;;;;;;;36.20;22.13;;;;;;;;;;5496389;27;19998;-84
2024/05/08 00:58:30;;;;;;;37.90;23.70;;;;;;;;;;5496563;26;20127;-84
2024/05/08 01:01:01;;;;;;;38.15;22.77;;;;;;;;;;5496593;26;20010;-84
2024/05/08 01:03:31;;;;;;;34.72;20.38;;;;;;;;;;5495836;27;20009;-83
2024/05/08 01:06:01;;;;;;;36.63;21.83;;;;;;;;;;5496504;27;19998;-84
2024/05/08 01:08:32;;;;;;;31.13;19.88;;;;;;;;;;5496390;26;20012;-82
2024/05/08 01:11:06;;;;;;;31.95;19.33;;;;;;;;;;5496283;27;20012;-83
2024/05/08 01:13:36;;;;;;;38.75;22.75;;;;;;;;;;5495665;27;20012;-83
2024/05/08 01:16:07;;;;;;;37.40;22.88;;;;;;;;;;5465445;27;20002;-83
2024/05/08 01:18:37;;;;;;;40.40;22.30;;;;;;;;;;5496318;26;20707;-85
2024/05/08 01:21:07;;;;;;;36.03;21.48;;;;;;;;;;5496126;27;20009;-84
2024/05/08 01:23:38;;;;;;;38.05;21.75;;;;;;;;;;5495053;27;20002;-84
2024/05/08 01:26:08;;;;;;;37.88;21.73;;;;;;;;;;5495632;27;20068;-84
2024/05/08 01:28:38;;;;;;;36.58;21.67;;;;;;;;;;5495371;26;20012;-85
2024/05/08 01:31:08;;;;;;;36.45;22.13;;;;;;;;;;5495968;27;19998;-83
2024/05/08 01:33:39;;;;;;;30.35;19.23;;;;;;;;;;5494884;27;20002;-82
2024/05/08 01:36:09;;;;;;;37.15;21.17;;;;;;;;;;5495807;27;20048;-82
2024/05/08 01:38:39;;;;;;;32.13;20.98;;;;;;;;;;5495308;26;20344;-84
2024/05/08 01:41:09;;;;;;;35.45;21.77;;;;;;;;;;5494991;26;20001;-85
2024/05/08 01:43:40;;;;;;;38.33;22.67;;;;;;;;;;5492329;27;20006;-84
2024/05/08 01:46:10;;;;;;;39.55;22.77;;;;;;;;;;5495198;26;20009;-83
2024/05/08 01:48:40;;;;;;;36.15;22.02;;;;;;;;;;5495012;26;20010;-84
2024/05/08 01:51:10;;;;;;;36.38;22.45;;;;;;;;;;5495811;27;20321;-84
2024/05/08 01:53:41;;;;;;;38.33;22.70;;;;;;;;;;5497555;27;20017;-85
2024/05/08 01:56:11;;;;;;;38.58;22.77;;;;;;;;;;5497549;27;19998;-84
2024/05/08 01:58:41;;;;;;;40.80;23.23;;;;;;;;;;5498693;26;20005;-84
2024/05/08 02:01:14;;;;;;;40.92;23.10;;;;;;;;;;5498473;27;19994;-84
2024/05/08 02:03:44;;;;;;;43.10;23.95;;;;;;;;;;5498009;27;20534;-83
2024/05/08 02:06:14;;;;;;;38.08;21.80;;;;;;;;;;5498802;26;20351;-83
2024/05/08 02:08:45;;;;;;;35.72;21.17;;;;;;;;;;5496317;26;20005;-85
2024/05/08 02:11:15;;;;;;;39.78;22.33;;;;;;;;;;5497616;26;19993;-83
2024/05/08 02:13:45;;;;;;;35.72;21.13;;;;;;;;;;5481244;27;19994;-84
2024/05/08 02:16:15;;;;;;;41.67;23.52;;;;;;;;;;5496761;27;20009;-83
2024/05/08 02:18:46;;;;;;;36.45;21.98;;;;;;;;;;5496200;26;19990;-83
2024/05/08 02:21:16;;;;;;;36.22;21.75;;;;;;;;;;5496909;27;20008;-84
2024/05/08 02:23:46;;;;;;;43.10;22.77;;;;;;;;;;5496124;26;19994;-83
2024/05/08 02:26:16;;;;;;;40.17;23.60;;;;;;;;;;5496844;26;20011;-83
2024/05/08 02:28:46;;;;;;;39.20;21.48;;;;;;;;;;5496789;26;20064;-83
2024/05/08 02:31:17;;;;;;;40.78;22.80;;;;;;;;;;5496433;26;20072;-83
2024/05/08 02:33:47;;;;;;;34.42;20.48;;;;;;;;;;5496250;26;20391;-83
2024/05/08 02:36:17;;;;;;;38.33;21.83;;;;;;;;;;5497078;26;20064;-83
2024/05/08 02:38:47;;;;;;;38.85;22.63;;;;;;;;;;5496468;26;20067;-83
2024/05/08 02:41:17;;;;;;;42.40;22.58;;;;;;;;;;5496693;27;20002;-83
2024/05/08 02:43:48;;;;;;;40.53;23.75;;;;;;;;;;5494627;26;20001;-82
2024/05/08 02:46:18;;;;;;;41.00;23.40;;;;;;;;;;5496546;26;20013;-84
2024/05/08 02:48:48;;;;;;;41.00;22.00;;;;;;;;;;5496286;26;19990;-83
2024/05/08 02:51:18;;;;;;;38.88;22.17;;;;;;;;;;5496322;26;20012;-83
2024/05/08 02:53:49;;;;;;;39.38;21.02;;;;;;;;;;5495080;26;19989;-83
2024/05/08 02:56:19;;;;;;;39.90;22.67;;;;;;;;;;5496287;26;20071;-83
2024/05/08 02:58:49;;;;;;;35.72;21.02;;;;;;;;;;5496005;26;19997;-83
2024/05/08 03:01:19;;;;;;;42.40;22.90;;;;;;;;;;5494649;27;20309;-83
2024/05/08 03:03:50;;;;;;;38.08;21.52;;;;;;;;;;5494333;26;20003;-83
2024/05/08 03:06:20;;;;;;;37.13;21.05;;;;;;;;;;5494453;27;19997;-83
2024/05/08 03:08:50;;;;;;;35.55;20.83;;;;;;;;;;5495713;26;19993;-83
2024/05/08 03:11:21;;;;;;;33.63;20.42;;;;;;;;;;5495845;26;20006;-83
2024/05/08 03:13:51;;;;;;;35.20;19.48;;;;;;;;;;5466897;27;20006;-83
2024/05/08 03:16:22;;;;;;;33.85;20.27;;;;;;;;;;5494296;26;20459;-82
2024/05/08 03:18:52;;;;;;;26.05;15.00;;;;;;;;;;5495554;26;19997;-83
2024/05/08 03:21:22;;;;;;;36.17;20.55;;;;;;;;;;5495328;26;19997;-83
2024/05/08 03:23:53;;;;;;;31.58;19.25;;;;;;;;;;5495333;26;20004;-83
2024/05/08 03:26:23;;;;;;;29.52;18.17;;;;;;;;;;5496778;26;20005;-83
2024/05/08 03:28:53;;;;;;;34.72;19.33;;;;;;;;;;5495499;26;19990;-82
2024/05/08 03:31:23;;;;;;;30.55;19.60;;;;;;;;;;5499351;26;20006;-83
2024/05/08 03:33:53;;;;;;;32.88;20.00;;;;;;;;;;5494785;27;20336;-83
2024/05/08 03:36:24;;;;;;;33.58;20.33;;;;;;;;;;5495658;27;20422;-82
2024/05/08 03:38:54;;;;;;;35.28;20.67;;;;;;;;;;5464997;27;20016;-84
2024/05/08 03:41:24;;;;;;;33.80;20.27;;;;;;;;;;5494981;27;20342;-83
2024/05/08 03:43:56;;;;;;;34.05;18.58;;;;;;;;;;5494015;27;20002;-83
2024/05/08 03:46:26;;;;;;;37.58;20.02;;;;;;;;;;5495861;27;20057;-83
2024/05/08 03:48:56;;;;;;;31.77;19.50;;;;;;;;;;5495101;26;20391;-83
2024/05/08 03:51:26;;;;;;;30.83;19.70;;;;;;;;;;5496134;27;20001;-83
2024/05/08 03:53:57;;;;;;;28.40;17.48;;;;;;;;;;5494703;27;19997;-83
2024/05/08 03:56:27;;;;;;;30.23;18.42;;;;;;;;;;5494800;27;19990;-83
2024/05/08 03:58:57;;;;;;;33.08;19.00;;;;;;;;;;5495488;26;20009;-83
2024/05/08 04:01:27;;;;;;;35.53;19.75;;;;;;;;;;5495503;26;19990;-84
2024/05/08 04:03:57;;;;;;;29.45;19.15;;;;;;;;;;5494587;26;19993;-83
2024/05/08 04:06:28;;;;;;;32.40;19.15;;;;;;;;;;5496025;26;20001;-83
2024/05/08 04:08:58;;;;;;;30.65;19.20;;;;;;;;;;5494626;26;20005;-83
2024/05/08 04:11:31;;;;;;;31.90;17.95;;;;;;;;;;5515689;22;20450;-83
2024/05/08 04:14:02;;;;;;;29.77;16.70;;;;;;;;;;5532637;26;19997;-84
2024/05/08 04:16:32;;;;;;;28.73;17.88;;;;;;;;;;5503683;26;20011;-85
2024/05/08 04:19:03;;;;;;;32.53;17.95;;;;;;;;;;5501915;26;19998;-83
2024/05/08 04:21:34;;;;;;;35.10;19.02;;;;;;;;;;5498510;27;20006;-83
2024/05/08 04:24:04;;;;;;;32.97;19.15;;;;;;;;;;5467519;27;20308;-83
2024/05/08 04:26:38;;;;;;;31.00;18.08;;;;;;;;;;5498191;27;19994;-83
2024/05/08 04:29:11;;;;;;;29.10;18.45;;;;;;;;;;5482831;27;20001;-84
2024/05/08 04:31:41;;;;;;;27.42;17.40;;;;;;;;;;5496246;27;20551;-83
2024/05/08 04:34:11;;;;;;;28.30;17.63;;;;;;;;;;5480877;27;20002;-82
2024/05/08 04:36:42;;;;;;;24.42;16.02;;;;;;;;;;5497788;27;20010;-82
2024/05/08 04:39:13;;;;;;;30.40;18.83;;;;;;;;;;5497348;26;20078;-82
2024/05/08 04:41:43;;;;;;;26.73;16.77;;;;;;;;;;5497347;26;20004;-82
2024/05/08 04:44:13;;;;;;;26.10;17.23;;;;;;;;;;5494820;27;20053;-82
2024/05/08 04:46:43;;;;;;;29.02;17.30;;;;;;;;;;5497826;26;19994;-82
2024/05/08 04:49:14;;;;;;;27.92;16.77;;;;;;;;;;5495023;26;20057;-82
2024/05/08 04:51:44;;;;;;;26.05;17.10;;;;;;;;;;5496947;26;19993;-82
2024/05/08 04:54:17;;;;;;;26.50;17.42;;;;;;;;;;5496993;26;20013;-82
2024/05/08 04:56:57;;;;;;;28.00;16.25;;;;;;;;;;5496482;26;20056;-82
2024/05/08 04:59:27;;;;;;;26.52;15.45;;;;;;;;;;5496389;26;20033;-84
2024/05/08 05:01:57;;;;;;;27.90;16.05;;;;;;;;;;5492509;26;20019;-84
2024/05/08 05:04:30;;;;;;;26.00;15.60;;;;;;;;;;5494406;26;20369;-83
2024/05/08 05:07:01;;;;;;;21.52;15.07;;;;;;;;;;5493161;26;19994;-84
2024/05/08 05:09:31;;;;;;;31.88;17.35;;;;;;;;;;5494745;26;20017;-83
2024/05/08 05:12:01;;;;;;;25.55;16.00;;;;;;;;;;5494215;26;20067;-83
2024/05/08 05:14:31;;;;;;;24.73;15.88;;;;;;;;;;5494059;26;19998;-83
2024/05/08 05:17:02;;;;;;;23.00;14.02;;;;;;;;;;5494165;26;20010;-83
2024/05/08 05:19:32;;;;;;;23.23;14.25;;;;;;;;;;5492393;27;20002;-83
2024/05/08 05:22:02;;;;;;;27.92;15.15;;;;;;;;;;5493964;26;20001;-83
2024/05/08 05:24:33;;;;;;;22.70;15.60;;;;;;;;;;5491621;27;20017;-83
2024/05/08 05:27:03;;;;;;;22.13;14.43;;;;;;;;;;5495676;26;19994;-83
2024/05/08 05:29:33;;;;;;;22.50;14.27;;;;;;;;;;5496654;26;19993;-83
2024/05/08 05:34:58;;;;;;;20.83;12.85;;;;;;;;;;5496033;27;20020;-83
2024/05/08 05:37:28;;;;;;;20.65;12.60;;;;;;;;;;5496903;26;20141;-84
2024/05/08 05:39:59;;;;;;;21.23;12.65;;;;;;;;;;5496796;27;20005;-84
2024/05/08 05:48:09;;;;;;;18.30;10.73;;;;;;;;;;5493287;26;20068;-84
2024/05/08 05:50:42;;;;;;;18.30;11.35;;;;;;;;;;5494512;26;19998;-84
2024/05/08 05:53:12;;;;;;;17.42;11.77;;;;;;;;;;5495002;26;20005;-85
2024/05/08 05:55:43;;;;;;;20.15;11.70;;;;;;;;;;5495572;26;20016;-84
2024/05/08 05:58:14;;;;;;;16.80;10.75;;;;;;;;;;5495544;26;20001;-84
2024/05/08 06:00:45;;;;;;;16.38;10.18;;;;;;;;;;5494591;27;20529;-84
2024/05/08 06:03:18;;;;;;;20.60;10.80;;;;;;;;;;5498003;26;20005;-84
2024/05/08 06:05:48;;;;;;;19.52;10.60;;;;;;;;;;5499462;26;20009;-84
2024/05/08 06:08:19;;;;;;;18.67;9.73;;;;;;;;;;5501073;26;20001;-84
2024/05/08 06:11:04;;;;;;;15.52;9.57;;;;;;;;;;5497833;27;20049;-84
2024/05/08 06:13:34;;;;;;;17.85;10.02;;;;;;;;;;5498296;27;20040;-84
2024/05/08 06:16:05;;;;;;;15.85;8.50;;;;;;;;;;5500842;27;20009;-84
2024/05/08 06:18:39;;;;;;;16.63;9.23;;;;;;;;;;5475772;27;20327;-84
2024/05/08 06:21:14;;;;;;;16.88;9.52;;;;;;;;;;5500072;26;20016;-84
2024/05/08 06:23:44;;;;;;;15.00;9.07;;;;;;;;;;5462768;27;20192;-84
2024/05/08 06:26:17;;;;;;;15.07;8.73;;;;;;;;;;5499297;27;20467;-84
2024/05/08 06:28:48;;;;;;;13.60;9.45;;;;;;;;;;5500074;26;20009;-84
2024/05/08 06:31:21;;;;;;;13.48;7.78;;;;;;;;;;5500004;27;19998;-84
2024/05/08 06:33:55;;;;;;;10.88;7.40;;;;;;;;;;5467104;27;20072;-84
2024/05/08 06:36:25;;;;;;;12.02;7.32;;;;;;;;;;5499061;27;20001;-84
2024/05/08 06:38:56;;;;;;;12.93;7.53;;;;;;;;;;5483205;27;19999;-84
2024/05/08 06:41:26;;;;;;;16.27;7.28;;;;;;;;;;5498644;27;20058;-84
2024/05/08 06:43:56;;;;;;;13.25;7.10;;;;;;;;;;5484151;27;20001;-83
2024/05/08 06:46:26;;;;;;;11.00;6.57;;;;;;;;;;5487114;27;20068;-83
2024/05/08 06:48:56;;;;;;;10.82;6.47;;;;;;;;;;5498667;26;20017;-82
2024/05/08 06:51:27;;;;;;;13.35;6.35;;;;;;;;;;5501264;27;20075;-81
2024/05/08 06:53:58;;;;;;;8.85;6.10;;;;;;;;;;5495823;27;20001;-81
2024/05/08 06:56:29;;;;;;;10.10;6.28;;;;;;;;;;5500085;27;20309;-82
2024/05/08 06:58:59;;;;;;;11.50;5.40;;;;;;;;;;5500469;26;20055;-81
2024/05/08 07:01:29;;;;;;;10.32;6.40;;;;;;;;;;5483806;27;19998;-81
2024/05/08 07:04:00;;;;;;;10.25;6.15;;;;;;;;;;5499715;27;20079;-81
2024/05/08 07:06:30;;;;;;;11.60;6.60;;;;;;;;;;5500513;27;19990;-81
2024/05/08 07:09:00;;;;;;;8.68;6.15;;;;;;;;;;5499808;26;19998;-81
2024/05/08 07:11:30;;;;;;;11.85;6.57;;;;;;;;;;5499556;26;20072;-78
2024/05/08 07:14:01;;;;;;;25.17;7.30;;;;;;;;;;5495979;26;20356;-78
2024/05/08 07:16:31;;;;;;;11.77;6.53;;;;;;;;;;5497919;27;20399;-79
2024/05/08 07:19:01;;;;;;;9.90;6.38;;;;;;;;;;5496571;26;20002;-82
2024/05/08 07:21:31;;;;;;;8.25;5.75;;;;;;;;;;5497109;26;19997;-82
2024/05/08 07:24:02;;;;;;;8.50;5.82;;;;;;;;;;5496079;27;20320;-79
2024/05/08 07:26:35;;;;;;;28.45;6.70;;;;;;;;;;5496238;26;20342;-79
2024/05/08 07:29:06;;;;;;;12.13;6.53;;;;;;;;;;5498086;26;20018;-80
2024/05/08 07:31:36;;;;;;;12.30;6.32;;;;;;;;;;5499519;26;20012;-79
2024/05/08 07:34:06;;;;;;;9.43;5.75;;;;;;;;;;5499841;27;20005;-79
2024/05/08 07:36:37;;;;;;;9.52;5.90;;;;;;;;;;5502990;26;20016;-80
2024/05/08 07:39:08;;;;;;;11.43;6.88;;;;;;;;;;5505266;26;20017;-80
2024/05/08 07:41:42;;;;;;;11.52;6.65;;;;;;;;;;5504936;26;20002;-80
2024/05/08 07:44:15;;;;;;;10.88;6.68;;;;;;;;;;5504509;26;20474;-80
2024/05/08 07:46:45;;;;;;;11.55;6.50;;;;;;;;;;5494364;27;20022;-80
2024/05/08 07:49:15;;;;;;;9.88;6.47;;;;;;;;;;5487562;26;20053;-80
2024/05/08 07:51:45;;;;;;;9.60;6.60;;;;;;;;;;5505427;26;20002;-80
2024/05/08 07:54:19;;;;;;;13.18;7.30;;;;;;;;;;5504967;27;20001;-81
2024/05/08 07:56:49;;;;;;;10.40;6.40;;;;;;;;;;5504799;26;20010;-80
2024/05/08 07:59:19;;;;;;;10.80;6.88;;;;;;;;;;5504610;26;20474;-81
2024/05/08 08:01:49;;;;;;;13.93;7.40;;;;;;;;;;5526829;26;19989;-80
2024/05/08 08:04:20;;;;;;;11.73;6.43;;;;;;;;;;5518022;26;20009;-81
2024/05/08 08:06:50;;;;;;;10.63;6.57;;;;;;;;;;5508150;26;19994;-80
2024/05/08 08:09:20;;;;;;;11.20;7.63;;;;;;;;;;5523923;26;19993;-80
2024/05/08 08:11:50;;;;;;;12.88;6.57;;;;;;;;;;5514201;26;20386;-80
2024/05/08 08:14:21;;;;;;;10.10;6.63;;;;;;;;;;5513471;26;20002;-81
2024/05/08 08:16:51;;;;;;;9.98;5.80;;;;;;;;;;5503955;26;19993;-80
2024/05/08 08:19:22;;;;;;;8.30;5.55;;;;;;;;;;5504362;27;20050;-81
2024/05/08 08:21:53;;;;;;;12.32;6.35;;;;;;;;;;5474651;27;20033;-81
2024/05/08 08:24:24;;;;;;;9.70;5.90;;;;;;;;;;5503434;27;20002;-81
2024/05/08 08:26:54;;;;;;;7.90;6.00;;;;;;;;;;5503368;26;20062;-81
2024/05/08 08:29:24;;;;;;;9.10;5.90;;;;;;;;;;5499947;26;20008;-81
2024/05/08 08:31:54;;;;;;;8.13;5.47;;;;;;;;;;5501548;26;19994;-81
2024/05/08 08:34:25;;;;;;;11.07;5.90;;;;;;;;;;5504513;27;20008;-80
2024/05/08 08:36:55;;;;;;;8.57;4.90;;;;;;;;;;5503998;26;20002;-80
2024/05/08 08:39:31;;;;;;;10.60;5.90;;;;;;;;;;5503934;26;20010;-81
2024/05/08 08:42:23;;;;;;;;;;;;;;;;;;;;;
2024/05/08 08:45:09;;;;;;;10.02;5.57;;;;;;;;;;5503101;27;20016;-81
2024/05/08 08:47:49;;;;;;;10.35;5.57;;;;;;;;;;5475255;27;20000;-80
2024/05/08 08:50:20;;;;;;;7.05;5.30;;;;;;;;;;5505755;27;19993;-81
2024/05/08 08:52:53;;;;;;;11.32;5.55;;;;;;;;;;5475486;27;20422;-81
2024/05/08 08:55:24;;;;;;;9.07;6.13;;;;;;;;;;5504960;27;20004;-80
2024/05/08 08:57:54;;;;;;;5.97;4.15;;;;;;;;;;5475378;27;20005;-81
2024/05/08 09:00:26;;;;;;;9.48;6.07;;;;;;;;;;5474980;27;19994;-81
2024/05/08 09:03:04;;;;;;;10.43;5.95;;;;;;;;;;5505427;27;20010;-81
2024/05/08 09:05:35;;;;;;;8.18;5.60;;;;;;;;;;5505753;27;19997;-81
2024/05/08 09:08:06;;;;;;;9.00;5.80;;;;;;;;;;5505861;26;20422;-80
2024/05/08 09:10:36;;;;;;;8.82;5.47;;;;;;;;;;5505843;27;20026;-81
2024/05/08 09:13:10;;;;;;;9.87;6.80;;;;;;;;;;5505898;27;19994;-81
2024/05/08 09:15:40;;;;;;;11.10;6.63;;;;;;;;;;5505726;27;19997;-81
2024/05/08 09:18:16;;;;;;;11.00;6.43;;;;;;;;;;5506156;26;20002;-80
2024/05/08 09:20:47;;;;;;;12.00;6.10;;;;;;;;;;5505562;27;20000;-81
2024/05/08 09:23:17;;;;;;;8.05;4.22;;;;;;;;;;5505669;27;20001;-81
2024/05/08 09:25:54;;;;;;;12.73;6.30;;;;;;;;;;5505145;27;19997;-81
2024/05/08 09:28:27;;;;;;;8.30;6.18;;;;;;;;;;5475445;27;20018;-80
2024/05/08 09:30:58;;;;;;;10.60;5.65;;;;;;;;;;5506333;27;19994;-81
2024/05/08 09:33:28;;;;;;;7.40;5.38;;;;;;;;;;5475738;27;19998;-80
2024/05/08 09:35:59;;;;;;;9.57;5.70;;;;;;;;;;5506104;27;20159;-81
2024/05/08 09:38:32;;;;;;;12.27;5.75;;;;;;;;;;5506590;26;20020;-81
2024/05/08 09:41:05;;;;;;;9.65;5.15;;;;;;;;;;5505861;27;19990;-81
2024/05/08 09:43:38;;;;;;;8.90;5.53;;;;;;;;;;5504914;27;20010;-81
2024/05/08 09:46:13;;;;;;;9.63;5.55;;;;;;;;;;5504791;27;20005;-81
2024/05/08 09:48:47;;;;;;;10.00;4.97;;;;;;;;;;5505668;26;20009;-81
2024/05/08 09:51:24;;;;;;;7.55;5.10;;;;;;;;;;5505352;27;20010;-80
2024/05/08 09:54:04;;;;;;;10.02;5.10;;;;;;;;;;5505260;27;20440;-83
2024/05/08 09:56:46;;;;;;;9.02;4.78;;;;;;;;;;5503696;27;20004;-83
2024/05/08 09:59:20;;;;;;;8.18;4.97;;;;;;;;;;5505271;26;20444;-82
2024/05/08 10:01:50;;;;;;;10.27;4.80;;;;;;;;;;5504572;27;19993;-82
2024/05/08 10:04:24;;;;;;;8.85;5.00;;;;;;;;;;5504761;27;20060;-83
2024/05/08 10:06:57;;;;;;;7.30;4.50;;;;;;;;;;5503803;26;19997;-82
2024/05/08 10:09:28;;;;;;;9.15;4.65;;;;;;;;;;5470244;27;20005;-82
2024/05/08 10:12:10;;;;;;;8.38;4.43;;;;;;;;;;5579156;21;20001;-78
2024/05/08 10:14:40;;;;;;;8.55;4.95;;;;;;;;;;5521523;26;20005;-78
2024/05/08 10:17:12;;;;;;;9.40;5.20;;;;;;;;;;5532127;26;20045;-78
2024/05/08 10:19:46;;;;;;;9.20;5.10;;;;;;;;;;5502494;27;20013;-78
2024/05/08 10:22:23;;;;;;;8.98;5.65;;;;;;;;;;5502051;27;20072;-78
2024/05/08 10:25:13;;;;;;;7.85;5.00;;;;;;;;;;5501369;27;20001;-78
2024/05/08 10:27:45;;;;;;;8.88;4.57;;;;;;;;;;5488582;26;20474;-78
2024/05/08 10:30:16;;;;;;;9.02;5.00;;;;;;;;;;5480097;27;20076;-78
2024/05/08 10:32:47;;;;;;;7.07;4.65;;;;;;;;;;5501812;27;20059;-78
2024/05/08 10:35:17;;;;;;;10.60;5.33;;;;;;;;;;5500949;26;20009;-79
2024/05/08 10:37:55;;;;;;;10.15;4.85;;;;;;;;;;5501519;26;20334;-78
2024/05/08 10:40:26;;;;;;;7.45;4.85;;;;;;;;;;5501491;27;20026;-78
2024/05/08 10:42:57;;;;;;;9.27;5.00;;;;;;;;;;5501558;27;20002;-78
2024/05/08 10:45:27;;;;;;;9.15;4.90;;;;;;;;;;5501031;27;20009;-78
2024/05/08 10:47:59;;;;;;;9.35;5.07;;;;;;;;;;5501368;26;20057;-78
2024/05/08 10:50:32;;;;;;;;;;;;;;;;;;5502700;27;19993;-79
2024/05/08 10:53:02;;;;;;;9.02;5.28;;;;;;;;;;5500892;27;19926;-78
2024/05/08 10:55:33;;;;;;;9.65;4.90;;;;;;;;;;5500915;26;20009;-78
2024/05/08 10:58:03;;;;;;;9.73;5.22;;;;;;;;;;5500873;26;20340;-78
2024/05/08 11:00:33;;;;;;;9.38;5.20;;;;;;;;;;5501340;26;20013;-78
2024/05/08 11:03:05;;;;;;;8.05;4.95;;;;;;;;;;5501369;27;20005;-78
2024/05/08 11:05:45;;;;;;;9.80;5.43;;;;;;;;;;5496849;27;20018;-78
2024/05/08 11:08:20;;;;;;;12.43;5.60;;;;;;;;;;5501415;26;20001;-78
2024/05/08 11:10:53;;;;;;;9.43;5.45;;;;;;;;;;5501072;27;20056;-78
2024/05/08 11:13:24;;;;;;;12.05;5.70;;;;;;;;;;5501810;27;20002;-78
2024/05/08 11:15:55;;;;;;;12.35;6.72;;;;;;;;;;5501083;26;20016;-79
2024/05/08 11:18:25;;;;;;;8.70;6.57;;;;;;;;;;5500238;26;20005;-79
2024/05/08 11:20:55;;;;;;;10.43;6.85;;;;;;;;;;5501033;27;20002;-81
2024/05/08 11:23:26;;;;;;;11.48;7.22;;;;;;;;;;5499544;26;20001;-80
2024/05/08 11:25:56;;;;;;;11.38;7.15;;;;;;;;;;5499992;26;20017;-78
2024/05/08 11:28:30;;;;;;;11.00;6.43;;;;;;;;;;5500070;26;20017;-80
2024/05/08 11:31:00;;;;;;;9.68;6.65;;;;;;;;;;5500059;27;20016;-80
2024/05/08 11:33:30;;;;;;;12.77;7.22;;;;;;;;;;5498962;27;19998;-81
2024/05/08 11:36:00;;;;;;;11.45;6.00;;;;;;;;;;5499123;27;20075;-80
2024/05/08 11:38:30;;;;;;;12.93;7.68;;;;;;;;;;5499358;26;20452;-81
2024/05/08 11:41:01;;;;;;;12.45;7.00;;;;;;;;;;5499261;27;20044;-81
2024/05/08 11:43:31;;;;;;;11.48;7.03;;;;;;;;;;5498575;27;20083;-81
2024/05/08 11:46:01;;;;;;;11.93;6.80;;;;;;;;;;5498756;27;20000;-81
2024/05/08 11:48:31;;;;;;;10.15;6.20;;;;;;;;;;5468789;27;20367;-80
2024/05/08 11:51:02;;;;;;;10.90;6.43;;;;;;;;;;5499555;27;19997;-80
2024/05/08 11:53:32;;;;;;;10.25;6.15;;;;;;;;;;5499510;27;20000;-80
2024/05/08 11:56:02;;;;;;;8.40;5.72;;;;;;;;;;5499554;26;20320;-80
2024/05/08 11:58:33;;;;;;;8.73;5.80;;;;;;;;;;5499857;26;20016;-81
2024/05/08 12:01:03;;;;;;;9.45;5.05;;;;;;;;;;5499379;26;20446;-80
2024/05/08 12:03:33;;;;;;;8.82;5.68;;;;;;;;;;5497911;26;19997;-79
2024/05/08 12:06:04;;;;;;;7.57;4.32;;;;;;;;;;5497712;27;20056;-81
2024/05/08 12:08:34;;;;;;;10.18;5.53;;;;;;;;;;5497888;26;20004;-80
2024/05/08 12:11:05;;;;;;;8.95;5.63;;;;;;;;;;5467961;27;20021;-81
2024/05/08 12:13:35;;;;;;;8.10;4.80;;;;;;;;;;5496711;27;20017;-81
2024/05/08 12:16:06;;;;;;;9.30;4.80;;;;;;;;;;5496831;27;20009;-80
2024/05/08 12:18:36;;;;;;;11.07;5.55;;;;;;;;;;5497785;26;20020;-83
2024/05/08 12:21:06;;;;;;;10.03;5.00;;;;;;;;;;5490940;27;20075;-83
2024/05/08 12:23:36;;;;;;;9.43;5.15;;;;;;;;;;5496457;27;20559;-81
2024/05/08 12:26:07;;;;;;;11.73;4.90;;;;;;;;;;5496641;27;19997;-81
2024/05/08 12:28:37;;;;;;;9.38;4.72;;;;;;;;;;5496690;26;20001;-82
2024/05/08 12:31:07;;;;;;;8.33;4.70;;;;;;;;;;5495514;27;20005;-80
2024/05/08 12:33:37;;;;;;;8.47;5.17;;;;;;;;;;5466039;27;20001;-82
2024/05/08 12:36:08;;;;;;;10.17;6.03;;;;;;;;;;5497110;27;20016;-83
2024/05/08 12:38:38;;;;;;;9.70;5.00;;;;;;;;;;5466067;27;20016;-79
2024/05/08 12:41:08;;;;;;;10.40;4.63;;;;;;;;;;5495890;27;19998;-80
2024/05/08 12:43:38;;;;;;;9.50;4.77;;;;;;;;;;5466303;27;20455;-79
2024/05/08 12:46:09;;;;;;;7.23;4.87;;;;;;;;;;5498920;27;19998;-82
2024/05/08 12:48:39;;;;;;;9.00;4.90;;;;;;;;;;5498665;26;20008;-82
2024/05/08 12:51:09;;;;;;;7.33;4.10;;;;;;;;;;5499943;27;19994;-80
2024/05/08 12:53:39;;;;;;;8.27;5.07;;;;;;;;;;5498928;26;19994;-80
2024/05/08 12:56:10;;;;;;;8.77;4.80;;;;;;;;;;5497850;26;19997;-80
2024/05/08 12:58:40;;;;;;;7.47;4.80;;;;;;;;;;5498342;26;20071;-80
2024/05/08 13:01:10;;;;;;;9.50;5.20;;;;;;;;;;5499599;26;20010;-79
2024/05/08 13:03:42;;;;;;;7.70;4.43;;;;;;;;;;5497381;26;19998;-81
2024/05/08 13:06:12;;;;;;;7.18;4.75;;;;;;;;;;5499645;26;19994;-82
2024/05/08 13:08:43;;;;;;;10.27;5.27;;;;;;;;;;5496655;26;20907;-81
2024/05/08 13:11:13;;;;;;;11.17;5.47;;;;;;;;;;5498288;26;20459;-80
2024/05/08 13:13:43;;;;;;;8.87;4.97;;;;;;;;;;5498933;26;20467;-81
2024/05/08 13:16:13;;;;;;;11.30;5.60;;;;;;;;;;5499067;26;19993;-81
2024/05/08 13:18:44;;;;;;;10.90;5.33;;;;;;;;;;5498842;26;20009;-81
2024/05/08 13:21:14;;;;;;;8.57;5.07;;;;;;;;;;5499205;26;19993;-81
2024/05/08 13:23:44;;;;;;;7.63;5.13;;;;;;;;;;5498277;26;20376;-82
2024/05/08 13:26:14;;;;;;;11.13;5.13;;;;;;;;;;5498787;26;20067;-82
2024/05/08 13:28:45;;;;;;;10.13;5.30;;;;;;;;;;5496285;26;20025;-82
2024/05/08 13:31:15;;;;;;;10.20;5.80;;;;;;;;;;5498850;26;20577;-81
2024/05/08 13:33:46;;;;;;;8.77;5.33;;;;;;;;;;5496520;27;20057;-81
2024/05/08 13:36:16;;;;;;;10.30;5.43;;;;;;;;;;5499059;26;20469;-81
2024/05/08 13:38:46;;;;;;;11.30;5.60;;;;;;;;;;5498928;26;20001;-81
2024/05/08 13:41:16;;;;;;;6.90;4.90;;;;;;;;;;5498524;26;20006;-82
2024/05/08 13:43:46;;;;;;;8.37;5.20;;;;;;;;;;5494770;27;20006;-81
2024/05/08 13:46:17;;;;;;;9.10;5.07;;;;;;;;;;5498010;26;20522;-82
2024/05/08 13:48:47;;;;;;;9.23;5.20;;;;;;;;;;5501109;26;20264;-82
2024/05/08 13:51:18;;;;;;;8.30;5.13;;;;;;;;;;5501656;26;20021;-82
2024/05/08 13:53:49;;;;;;;9.53;5.20;;;;;;;;;;5501188;26;19997;-81
2024/05/08 13:56:19;;;;;;;8.00;4.87;;;;;;;;;;5501340;26;20008;-81
2024/05/08 13:58:49;;;;;;;7.67;5.00;;;;;;;;;;5501962;26;20005;-82
2024/05/08 14:01:19;;;;;;;8.10;4.20;;;;;;;;;;5501573;27;20021;-82
2024/05/08 14:03:49;;;;;;;7.73;4.90;;;;;;;;;;5500820;27;20005;-82
2024/05/08 14:06:20;;;;;;;7.87;4.90;;;;;;;;;;5501289;26;19989;-81
2024/05/08 14:08:50;;;;;;;8.10;5.33;;;;;;;;;;5501183;26;19998;-82
2024/05/08 14:11:20;;;;;;;8.30;5.93;;;;;;;;;;5500709;26;20022;-81
2024/05/08 14:13:51;;;;;;;8.67;5.30;;;;;;;;;;5500905;26;20056;-81
2024/05/08 14:16:21;;;;;;;10.67;5.40;;;;;;;;;;5501902;26;20004;-81
2024/05/08 14:18:51;;;;;;;10.13;5.60;;;;;;;;;;5500766;26;20002;-81
2024/05/08 14:21:21;;;;;;;9.13;5.70;;;;;;;;;;5501221;27;19998;-80
2024/05/08 14:23:52;;;;;;;7.80;5.23;;;;;;;;;;5500156;27;19990;-81
2024/05/08 14:26:22;;;;;;;9.67;5.97;;;;;;;;;;5470472;27;20005;-81
2024/05/08 14:28:52;;;;;;;15.27;6.60;;;;;;;;;;5501006;26;19994;-81
2024/05/08 14:31:22;;;;;;;8.97;6.20;;;;;;;;;;5500670;27;19998;-81
2024/05/08 14:33:53;;;;;;;9.17;5.80;;;;;;;;;;5500480;27;20001;-81
2024/05/08 14:36:23;;;;;;;11.93;6.90;;;;;;;;;;5493473;27;20211;-81
2024/05/08 14:38:53;;;;;;;9.75;6.03;;;;;;;;;;5500462;26;20012;-81
2024/05/08 14:41:23;;;;;;;10.47;6.83;;;;;;;;;;5500820;27;20006;-81
2024/05/08 14:43:53;;;;;;;10.52;6.30;;;;;;;;;;5470674;27;20013;-81
2024/05/08 14:46:24;;;;;;;10.10;6.37;;;;;;;;;;5500640;27;20005;-82
2024/05/08 14:48:54;;;;;;;10.80;5.90;;;;;;;;;;5496916;26;19993;-81
2024/05/08 14:51:24;;;;;;;12.80;6.93;;;;;;;;;;5500513;26;20009;-81
2024/05/08 14:53:54;;;;;;;9.77;6.00;;;;;;;;;;5500046;26;19998;-81
2024/05/08 14:56:25;;;;;;;11.83;7.30;;;;;;;;;;5500831;26;20038;-81
2024/05/08 14:58:55;;;;;;;13.00;6.85;;;;;;;;;;5500363;26;20002;-81
2024/05/08 15:01:32;;;;;;;10.83;7.07;;;;;;;;;;5500305;26;20006;-81